createdAt,value
2024-05-09T00:01:39.247Z,101539.56
2024-05-09T00:03:41.587Z,101559.13
2024-05-09T00:05:46.702Z,101548.56
2024-05-09T00:07:48.618Z,101551.75
2024-05-09T00:09:53.074Z,101545.06
2024-05-09T00:11:54.968Z,101547.69
2024-05-09T00:13:57.072Z,101543.91
2024-05-09T00:15:59.820Z,101542.34
2024-05-09T00:18:02.085Z,101542.59
2024-05-09T00:20:11.067Z,101542.31
2024-05-09T00:22:16.399Z,101541.25
2024-05-09T00:24:18.387Z,101538.53
2024-05-09T00:26:24.010Z,101542.38
2024-05-09T00:28:25.769Z,101537.44
2024-05-09T00:30:33.748Z,101541.00
2024-05-09T00:32:38.202Z,101545.06
2024-05-09T00:34:40.275Z,101542.06
2024-05-09T00:36:42.153Z,101545.84
2024-05-09T00:38:45.871Z,101544.72
2024-05-09T00:40:47.881Z,101547.22
2024-05-09T00:42:52.403Z,101546.69
2024-05-09T00:44:54.166Z,101546.97
2024-05-09T00:46:56.281Z,101544.31
2024-05-09T00:48:58.242Z,101539.72
2024-05-09T00:51:00.845Z,101540.53
2024-05-09T00:53:03.044Z,101536.97
2024-05-09T00:55:06.574Z,101535.56
2024-05-09T00:57:08.511Z,101532.00
2024-05-09T00:59:13.109Z,101527.94
2024-05-09T01:01:17.967Z,101526.91
2024-05-09T01:03:20.381Z,101536.72
2024-05-09T01:05:22.538Z,101525.81
2024-05-09T01:07:24.812Z,101529.34
2024-05-09T01:09:26.795Z,101536.13
2024-05-09T01:11:33.776Z,101534.50
2024-05-09T01:13:35.743Z,101538.59
2024-05-09T01:15:40.196Z,101538.84
2024-05-09T01:17:42.580Z,101534.84
2024-05-09T01:19:44.642Z,101528.88
2024-05-09T01:21:46.556Z,101527.25
2024-05-09T01:23:51.051Z,101527.00
2024-05-09T01:25:52.859Z,101524.53
2024-05-09T01:27:54.543Z,101511.75
2024-05-09T01:29:56.421Z,101516.34
2024-05-09T01:31:58.301Z,101515.56
2024-05-09T01:34:00.435Z,101517.97
2024-05-09T01:36:02.492Z,101519.59
2024-05-09T01:38:04.846Z,101520.94
2024-05-09T01:40:14.907Z,101521.81
2024-05-09T01:42:20.076Z,101523.22
2024-05-09T01:44:21.884Z,101529.22
2024-05-09T01:46:23.820Z,101529.22
2024-05-09T01:48:25.890Z,101519.22
2024-05-09T01:50:38.134Z,101520.31
2024-05-09T01:52:43.094Z,101512.41
2024-05-09T01:54:44.941Z,101508.88
2024-05-09T01:56:49.403Z,101514.28
2024-05-09T01:58:51.275Z,101511.34
2024-05-09T02:00:53.179Z,101510.00
2024-05-09T02:02:55.055Z,101515.19
2024-05-09T02:04:57.104Z,101508.69
2024-05-09T02:06:59.026Z,101505.13
2024-05-09T02:09:00.787Z,101504.34
2024-05-09T02:11:02.868Z,101505.41
2024-05-09T02:13:08.543Z,101504.91
2024-05-09T02:15:13.218Z,101505.22
2024-05-09T02:17:18.226Z,101506.59
2024-05-09T02:19:20.183Z,101511.22
2024-05-09T02:21:22.062Z,101513.91
2024-05-09T02:23:23.791Z,101516.09
2024-05-09T02:25:25.578Z,101504.97
2024-05-09T02:27:28.956Z,101508.44
2024-05-09T02:29:33.449Z,101513.88
2024-05-09T02:31:35.348Z,101515.47
2024-05-09T02:33:37.435Z,101509.50
2024-05-09T02:35:39.804Z,101511.16
2024-05-09T02:37:42.059Z,101506.56
2024-05-09T02:39:43.855Z,101506.53
2024-05-09T02:41:45.683Z,101511.69
2024-05-09T02:43:47.509Z,101505.78
2024-05-09T02:45:51.989Z,101508.53
2024-05-09T02:47:54.062Z,101507.41
2024-05-09T02:49:56.086Z,101509.31
2024-05-09T02:51:57.979Z,101516.38
2024-05-09T02:54:02.818Z,101511.00
2024-05-09T02:56:05.614Z,101509.63
2024-05-09T02:58:07.643Z,101510.44
2024-05-09T03:00:18.542Z,101515.34
2024-05-09T03:02:26.861Z,101510.72
2024-05-09T03:04:28.755Z,101515.88
2024-05-09T03:06:30.618Z,101514.78
2024-05-09T03:08:32.657Z,101520.75
2024-05-09T03:10:36.818Z,101517.75
2024-05-09T03:12:40.608Z,101522.66
2024-05-09T03:14:42.622Z,101519.41
2024-05-09T03:16:44.591Z,101513.69
2024-05-09T03:18:51.734Z,101511.81
2024-05-09T03:20:53.929Z,101512.63
2024-05-09T03:22:57.003Z,101516.69
2024-05-09T03:24:59.052Z,101512.38
2024-05-09T03:27:01.008Z,101514.00
2024-05-09T03:29:03.121Z,101517.47
2024-05-09T03:31:06.280Z,101521.00
2024-05-09T03:33:10.423Z,101525.34
2024-05-09T03:35:15.121Z,101523.69
2024-05-09T03:37:16.930Z,101524.75
2024-05-09T03:39:18.773Z,101522.34
2024-05-09T03:41:20.443Z,101524.22
2024-05-09T03:43:22.375Z,101528.28
2024-05-09T03:45:25.600Z,101529.59
2024-05-09T03:47:27.562Z,101521.53
2024-05-09T03:49:29.552Z,101527.47
2024-05-09T03:51:34.120Z,101524.22
2024-05-09T03:53:36.039Z,101520.44
2024-05-09T03:55:38.001Z,101518.28
2024-05-09T03:57:39.779Z,101515.56
2024-05-09T03:59:41.631Z,101521.53
2024-05-09T04:01:43.558Z,101518.81
2024-05-09T04:03:45.636Z,101518.56
2024-05-09T04:05:47.453Z,101525.03
2024-05-09T04:07:52.134Z,101526.66
2024-05-09T04:09:53.915Z,101526.41
2024-05-09T04:11:55.934Z,101530.72
2024-05-09T04:13:57.918Z,101530.44
2024-05-09T04:15:59.731Z,101530.97
2024-05-09T04:18:02.195Z,101527.16
2024-05-09T04:20:08.333Z,101535.78
2024-05-09T04:22:10.428Z,101523.88
2024-05-09T04:24:14.839Z,101530.66
2024-05-09T04:26:17.480Z,101534.16
2024-05-09T04:28:19.471Z,101531.22
2024-05-09T04:30:30.230Z,101526.88
2024-05-09T04:32:38.358Z,101537.13
2024-05-09T04:34:40.184Z,101532.03
2024-05-09T04:36:44.339Z,101534.19
2024-05-09T04:38:46.717Z,101528.22
2024-05-09T04:40:51.198Z,101536.34
2024-05-09T04:42:53.035Z,101541.78
2024-05-09T04:44:58.335Z,101540.69
2024-05-09T04:47:00.683Z,101544.50
2024-05-09T04:49:02.672Z,101544.53
2024-05-09T04:51:07.245Z,101542.38
2024-05-09T04:53:10.647Z,101539.94
2024-05-09T04:55:13.595Z,101542.09
2024-05-09T04:57:18.185Z,101544.53
2024-05-09T04:59:20.068Z,101539.94
2024-05-09T05:01:22.085Z,101540.47
2024-05-09T05:03:24.016Z,101538.31
2024-05-09T05:05:26.075Z,101541.31
2024-05-09T05:07:27.939Z,101540.19
2024-05-09T05:09:30.137Z,101540.75
2024-05-09T05:11:32.258Z,101550.19
2024-05-09T05:13:39.447Z,101548.88
2024-05-09T05:15:43.397Z,101556.16
2024-05-09T05:17:45.393Z,101548.63
2024-05-09T05:19:47.527Z,101560.53
2024-05-09T05:21:49.526Z,101557.81
2024-05-09T05:23:51.503Z,101552.97
2024-05-09T05:25:54.186Z,101554.03
2024-05-09T05:27:56.313Z,101556.22
2024-05-09T05:30:00.756Z,101558.38
2024-05-09T05:32:02.678Z,101558.66
2024-05-09T05:34:04.776Z,101555.41
2024-05-09T05:36:07.588Z,101557.84
2024-05-09T05:38:10.688Z,101560.84
2024-05-09T05:40:20.671Z,101554.59
2024-05-09T05:42:26.795Z,101561.91
2024-05-09T05:44:28.713Z,101555.66
2024-05-09T05:46:33.120Z,101561.84
2024-05-09T05:48:35.358Z,101568.59
2024-05-09T05:50:38.474Z,101568.81
2024-05-09T05:52:40.707Z,101568.78
2024-05-09T05:54:42.521Z,101572.84
2024-05-09T05:56:44.432Z,101571.75
2024-05-09T05:58:46.323Z,101578.25
2024-05-09T06:00:48.416Z,101570.84
2024-05-09T06:02:53.272Z,101576.50
2024-05-09T06:04:55.245Z,101570.56
2024-05-09T06:06:57.140Z,101571.88
2024-05-09T06:08:58.941Z,101577.88
2024-05-09T06:11:00.926Z,101578.13
2024-05-09T06:13:02.819Z,101574.38
2024-05-09T06:15:05.797Z,101575.69
2024-05-09T06:17:07.786Z,101578.72
2024-05-09T06:19:12.425Z,101570.25
2024-05-09T06:21:16.787Z,101568.53
2024-05-09T06:23:18.717Z,101565.47
2024-05-09T06:25:20.910Z,101566.03
2024-05-09T06:27:22.760Z,101569.13
2024-05-09T06:29:24.560Z,101571.78
2024-05-09T06:31:26.363Z,101566.78
2024-05-09T06:33:28.514Z,101568.03
2024-05-09T06:35:33.731Z,101566.56
2024-05-09T06:37:36.365Z,101557.81
2024-05-09T06:39:38.111Z,101564.53
2024-05-09T06:41:40.012Z,101571.00
2024-05-09T06:43:42.749Z,101559.03
2024-05-09T06:45:44.539Z,101559.72
2024-05-09T06:47:46.605Z,101557.22
2024-05-09T06:49:48.716Z,101558.91
2024-05-09T06:51:53.443Z,101560.47
2024-05-09T06:53:55.322Z,101564.09
2024-05-09T06:55:57.119Z,101561.34
2024-05-09T06:57:58.878Z,101564.22
2024-05-09T07:00:00.832Z,101569.06
2024-05-09T07:02:03.042Z,101571.63
2024-05-09T07:04:05.258Z,101564.91
2024-05-09T07:06:07.109Z,101567.81
2024-05-09T07:08:11.877Z,101561.50
2024-05-09T07:10:21.702Z,101555.41
2024-05-09T07:12:28.084Z,101563.16
2024-05-09T07:14:30.331Z,101560.38
2024-05-09T07:16:32.146Z,101564.38
2024-05-09T07:18:34.040Z,101561.28
2024-05-09T07:20:35.993Z,101557.16
2024-05-09T07:22:37.781Z,101559.75
2024-05-09T07:24:42.292Z,101555.94
2024-05-09T07:26:44.219Z,101560.78
2024-05-09T07:28:46.025Z,101553.03
2024-05-09T07:30:48.059Z,101556.19
2024-05-09T07:32:50.252Z,101548.44
2024-05-09T07:34:52.647Z,101551.59
2024-05-09T07:36:54.532Z,101554.25
2024-05-09T07:38:56.266Z,101550.19
2024-05-09T07:41:00.897Z,101543.56
2024-05-09T07:43:03.050Z,101543.22
2024-05-09T07:45:21.561Z,101543.59
2024-05-09T07:53:14.372Z,101546.19
2024-05-09T07:54:01.910Z,101532.56
2024-05-09T07:56:08.642Z,101544.78
2024-05-09T07:58:11.070Z,101538.88
2024-05-09T08:00:17.280Z,101547.47
2024-05-09T08:02:22.077Z,101539.28
2024-05-09T08:04:26.582Z,101528.16
2024-05-09T08:06:28.746Z,101529.63
2024-05-09T08:08:30.517Z,101530.94
2024-05-09T08:10:32.434Z,101531.84
2024-05-09T08:12:36.949Z,101527.63
2024-05-09T08:14:39.071Z,101522.75
2024-05-09T08:16:40.931Z,101518.13
2024-05-09T08:18:42.837Z,101522.22
2024-05-09T08:20:48.602Z,101515.81
2024-05-09T08:22:50.443Z,101519.72
2024-05-09T08:24:52.212Z,101513.03
2024-05-09T08:26:54.233Z,101518.19
2024-05-09T08:28:58.709Z,101513.03
2024-05-09T08:31:03.178Z,101518.84
2024-05-09T08:33:07.885Z,101521.47
2024-05-09T08:35:10.102Z,101516.97
2024-05-09T08:37:19.418Z,101513.13
2024-05-09T08:39:23.916Z,101515.69
2024-05-09T08:41:25.918Z,101512.59
2024-05-09T08:43:29.564Z,101513.75
2024-05-09T08:45:35.577Z,101511.94
2024-05-09T08:47:37.584Z,101509.31
2024-05-09T08:49:41.643Z,101507.06
2024-05-09T08:51:44.252Z,101505.53
2024-05-09T08:53:46.462Z,101507.53
2024-05-09T08:55:51.063Z,101502.44
2024-05-09T08:57:53.652Z,101506.03
2024-05-09T08:59:59.347Z,101503.47
2024-05-09T09:02:06.055Z,101507.53
2024-05-09T09:04:10.187Z,101507.78
2024-05-09T09:06:12.794Z,101501.41
2024-05-09T09:08:15.830Z,101502.66
2024-05-09T09:10:25.416Z,101501.28
2024-05-09T09:12:33.560Z,101500.59
2024-05-09T09:14:35.376Z,101500.53
2024-05-09T09:16:37.737Z,101496.44
2024-05-09T09:18:44.330Z,101499.13
2024-05-09T09:20:46.448Z,101498.91
2024-05-09T09:22:48.573Z,101501.16
2024-05-09T09:24:50.591Z,101494.28
2024-05-09T09:26:52.541Z,101495.19
2024-05-09T09:29:00.051Z,101491.97
2024-05-09T09:31:02.583Z,101494.13
2024-05-09T09:33:05.218Z,101503.38
2024-05-09T09:35:10.138Z,101503.28
2024-05-09T09:37:11.959Z,101493.97
2024-05-09T09:39:18.469Z,101492.00
2024-05-09T09:41:26.424Z,101498.97
2024-05-09T09:43:28.552Z,101496.88
2024-05-09T09:45:32.358Z,101499.47
2024-05-09T09:47:37.056Z,101494.63
2024-05-09T09:49:39.724Z,101494.63
2024-05-09T09:51:45.296Z,101481.47
2024-05-09T09:53:49.062Z,101482.63
2024-05-09T09:55:52.110Z,101482.78
2024-05-09T09:57:56.184Z,101479.38
2024-05-09T10:00:00.365Z,101472.63
2024-05-09T10:02:02.369Z,101477.78
2024-05-09T10:04:05.395Z,101475.19
2024-05-09T10:06:08.546Z,101472.28
2024-05-09T10:08:13.837Z,101482.53
2024-05-09T10:10:29.881Z,101486.41
2024-05-09T10:12:34.841Z,101483.66
2024-05-09T10:14:41.015Z,101479.69
2024-05-09T10:16:45.818Z,101480.13
2024-05-09T10:18:47.975Z,101482.34
2024-05-09T10:20:50.355Z,101473.94
2024-05-09T10:22:52.154Z,101471.38
2024-05-09T10:25:05.354Z,101469.47
2024-05-09T10:27:07.628Z,101475.78
2024-05-09T10:29:12.817Z,101461.00
2024-05-09T10:31:16.467Z,101469.53
2024-05-09T10:33:20.256Z,101466.50
2024-05-09T10:35:22.741Z,101466.81
2024-05-09T10:37:25.745Z,101468.88
2024-05-09T10:39:34.722Z,101453.28
2024-05-09T10:41:40.165Z,101456.66
2024-05-09T10:43:42.367Z,101454.91
2024-05-09T10:45:44.559Z,101454.59
2024-05-09T10:47:46.553Z,101454.63
2024-05-09T10:49:49.569Z,101452.03
2024-05-09T10:51:52.589Z,101448.78
2024-05-09T10:53:54.611Z,101437.50
2024-05-09T10:55:56.786Z,101438.00
2024-05-09T10:58:01.507Z,101437.66
2024-05-09T11:00:06.196Z,101447.00
2024-05-09T11:02:09.368Z,101438.78
2024-05-09T11:04:11.550Z,101433.50
2024-05-09T11:06:15.030Z,101426.91
2024-05-09T11:08:17.464Z,101421.44
2024-05-09T11:10:27.379Z,101421.44
2024-05-09T11:12:33.913Z,101423.63
2024-05-09T11:14:38.689Z,101414.78
2024-05-09T11:16:40.689Z,101420.72
2024-05-09T11:18:42.642Z,101420.72
2024-05-09T11:20:44.678Z,101412.94
2024-05-09T11:22:46.629Z,101418.91
2024-05-09T11:24:49.886Z,101410.25
2024-05-09T11:26:51.815Z,101406.38
2024-05-09T11:28:53.718Z,101411.50
2024-05-09T11:31:05.140Z,101409.53
2024-05-09T11:33:10.656Z,101411.50
2024-05-09T11:35:12.824Z,101405.03
2024-05-09T11:37:14.814Z,101404.34
2024-05-09T11:39:16.864Z,101404.09
2024-05-09T11:41:19.568Z,101401.97
2024-05-09T11:43:21.617Z,101394.66
2024-05-09T11:45:23.451Z,101398.72
2024-05-09T11:47:28.278Z,101403.88
2024-05-09T11:49:30.777Z,101399.16
2024-05-09T11:51:32.733Z,101394.59
2024-05-09T11:53:34.675Z,101400.28
2024-05-09T11:55:36.679Z,101393.72
2024-05-09T11:57:39.155Z,101396.50
2024-05-09T11:59:41.398Z,101382.41
2024-05-09T12:01:43.556Z,101383.69
2024-05-09T12:03:48.392Z,101381.25
2024-05-09T12:05:50.748Z,101388.47
2024-05-09T12:07:52.704Z,101383.09
2024-05-09T12:09:54.614Z,101382.69
2024-05-09T12:11:56.516Z,101386.50
2024-05-09T12:13:58.342Z,101381.97
2024-05-09T12:16:00.964Z,101382.78
2024-05-09T12:18:04.212Z,101378.50
2024-05-09T12:20:17.507Z,101377.16
2024-05-09T12:22:27.341Z,101376.13
2024-05-09T12:24:29.406Z,101360.28
2024-05-09T12:26:31.461Z,101361.06
2024-05-09T12:28:33.436Z,101354.06
2024-05-09T12:30:38.905Z,101350.72
2024-05-09T12:32:42.496Z,101346.38
2024-05-09T12:34:44.383Z,101344.84
2024-05-09T12:36:49.068Z,101333.56
2024-05-09T12:38:51.201Z,101345.03
2024-05-09T12:40:53.222Z,101340.13
2024-05-09T12:42:55.302Z,101339.28
2024-05-09T12:44:57.226Z,101344.84
2024-05-09T12:46:59.101Z,101330.47
2024-05-09T12:49:01.510Z,101333.88
2024-05-09T12:51:03.956Z,101328.97
2024-05-09T12:53:08.549Z,101320.72
2024-05-09T12:55:12.047Z,101317.97
2024-05-09T12:57:13.953Z,101321.03
2024-05-09T12:59:15.901Z,101331.00
2024-05-09T13:01:17.891Z,101321.44
2024-05-09T13:03:20.364Z,101314.34
2024-05-09T13:05:22.559Z,101317.47
2024-05-09T13:07:25.388Z,101303.75
2024-05-09T13:09:29.994Z,101306.94
2024-05-09T13:11:32.110Z,101307.72
2024-05-09T13:13:34.288Z,101302.97
2024-05-09T13:15:36.409Z,101302.09
2024-05-09T13:17:38.542Z,101306.44
2024-05-09T13:19:40.624Z,101305.47
2024-05-09T13:21:42.561Z,101300.16
2024-05-09T13:23:44.850Z,101303.63
2024-05-09T13:25:49.414Z,101293.72
2024-05-09T13:27:51.472Z,101288.16
2024-05-09T13:29:53.345Z,101293.13
2024-05-09T13:31:55.254Z,101282.38
2024-05-09T13:33:57.154Z,101284.75
2024-05-09T13:35:59.306Z,101285.38
2024-05-09T13:38:01.635Z,101282.81
2024-05-09T13:40:06.763Z,101272.91
2024-05-09T13:42:11.805Z,101270.53
2024-05-09T13:44:13.658Z,101273.53
2024-05-09T13:46:15.504Z,101266.88
2024-05-09T13:48:17.895Z,101261.44
2024-05-09T13:50:28.129Z,101263.69
2024-05-09T13:52:35.697Z,101264.16
2024-05-09T13:54:37.732Z,101255.09
2024-05-09T13:56:41.345Z,101258.81
2024-05-09T13:58:46.153Z,101256.09
2024-05-09T14:00:49.355Z,101258.91
2024-05-09T14:02:51.762Z,101255.16
2024-05-09T14:04:54.090Z,101256.28
2024-05-09T14:06:56.122Z,101256.06
2024-05-09T14:08:58.019Z,101261.19
2024-05-09T14:11:00.107Z,101247.44
2024-05-09T14:13:02.232Z,101247.66
2024-05-09T14:15:07.554Z,101247.00
2024-05-09T14:17:09.672Z,101240.66
2024-05-09T14:19:11.927Z,101232.09
2024-05-09T14:21:13.809Z,101243.38
2024-05-09T14:23:17.768Z,101237.91
2024-05-09T14:25:19.655Z,101231.88
2024-05-09T14:27:21.604Z,101224.19
2024-05-09T14:29:23.677Z,101234.25
2024-05-09T14:31:28.166Z,101226.59
2024-05-09T14:33:30.309Z,101220.69
2024-05-09T14:35:32.320Z,101228.31
2024-05-09T14:37:36.333Z,101214.66
2024-05-09T14:39:39.046Z,101213.59
2024-05-09T14:41:41.079Z,101222.41
2024-05-09T14:43:43.333Z,101217.72
2024-05-09T14:45:46.016Z,101214.19
2024-05-09T14:47:50.891Z,101219.69
2024-05-09T14:49:52.880Z,101210.00
2024-05-09T14:51:55.028Z,101211.91
2024-05-09T14:53:56.790Z,101205.88
2024-05-09T14:55:58.656Z,101204.19
2024-05-09T14:58:00.587Z,101197.44
2024-05-09T15:00:03.765Z,101205.72
2024-05-09T15:02:07.158Z,101196.81
2024-05-09T15:04:12.036Z,101192.16
2024-05-09T15:06:14.601Z,101190.84
2024-05-09T15:08:17.803Z,101183.53
2024-05-09T15:10:27.023Z,101183.72
2024-05-09T15:12:35.853Z,101181.66
2024-05-09T15:14:37.719Z,101181.03
2024-05-09T15:16:39.501Z,101179.44
2024-05-09T15:18:43.760Z,101177.28
2024-05-09T15:20:48.951Z,101175.09
2024-05-09T15:22:50.995Z,101171.09
2024-05-09T15:24:53.051Z,101165.31
2024-05-09T15:26:55.082Z,101170.94
2024-05-09T15:28:57.007Z,101162.94
2024-05-09T15:30:59.038Z,101162.78
2024-05-09T15:33:01.540Z,101163.19
2024-05-09T15:35:04.448Z,101161.25
2024-05-09T15:37:09.165Z,101162.91
2024-05-09T15:39:11.322Z,101164.97
2024-05-09T15:41:13.715Z,101165.81
2024-05-09T15:43:15.783Z,101165.03
2024-05-09T15:45:17.716Z,101160.06
2024-05-09T15:47:20.039Z,101153.72
2024-05-09T15:49:22.065Z,101150.97
2024-05-09T15:51:24.017Z,101154.75
2024-05-09T15:53:28.548Z,101150.75
2024-05-09T15:55:30.415Z,101148.44
2024-05-09T15:57:32.676Z,101147.97
2024-05-09T15:59:35.168Z,101148.44
2024-05-09T16:01:37.141Z,101144.41
2024-05-09T16:03:39.153Z,101149.22
2024-05-09T16:05:41.489Z,101144.75
2024-05-09T16:07:43.839Z,101152.88
2024-05-09T16:09:48.346Z,101143.22
2024-05-09T16:11:50.331Z,101142.97
2024-05-09T16:13:52.231Z,101144.03
2024-05-09T16:15:54.177Z,101148.56
2024-05-09T16:17:59.384Z,101151.19
2024-05-09T16:20:01.384Z,101150.91
2024-05-09T16:22:03.480Z,101143.56
2024-05-09T16:24:05.899Z,101141.31
2024-05-09T16:26:11.143Z,101142.81
2024-05-09T16:28:13.612Z,101142.81
2024-05-09T16:30:24.665Z,101142.94
2024-05-09T16:32:33.450Z,101139.66
2024-05-09T16:34:35.805Z,101138.38
2024-05-09T16:36:37.713Z,101143.84
2024-05-09T16:38:39.684Z,101134.13
2024-05-09T16:40:41.842Z,101136.47
2024-05-09T16:42:46.345Z,101142.09
2024-05-09T16:44:48.504Z,101131.47
2024-05-09T16:46:50.376Z,101136.97
2024-05-09T16:48:52.400Z,101132.63
2024-05-09T16:50:54.407Z,101133.53
2024-05-09T16:52:56.634Z,101135.13
2024-05-09T16:54:58.640Z,101139.72
2024-05-09T16:57:00.625Z,101136.41
2024-05-09T16:59:05.257Z,101138.66
2024-05-09T17:01:07.314Z,101130.78
2024-05-09T17:03:10.275Z,101137.75
2024-05-09T17:05:13.111Z,101136.28
2024-05-09T17:07:15.224Z,101140.75
2024-05-09T17:09:19.799Z,101135.28
2024-05-09T17:11:22.346Z,101136.78
2024-05-09T17:13:24.240Z,101134.25
2024-05-09T17:15:29.020Z,101141.34
2024-05-09T17:17:30.992Z,101138.13
2024-05-09T17:19:33.096Z,101131.94
2024-05-09T17:21:35.067Z,101131.47
2024-05-09T17:23:37.227Z,101132.84
2024-05-09T17:25:39.320Z,101127.81
2024-05-09T17:27:41.175Z,101127.91
2024-05-09T17:29:43.193Z,101137.09
2024-05-09T17:31:47.642Z,101130.91
2024-05-09T17:33:49.689Z,101133.41
2024-05-09T17:35:51.811Z,101124.28
2024-05-09T17:37:53.848Z,101129.88
2024-05-09T17:39:55.684Z,101136.78
2024-05-09T17:41:57.631Z,101138.13
2024-05-09T17:43:59.980Z,101138.69
2024-05-09T17:46:02.078Z,101141.56
2024-05-09T17:48:07.892Z,101134.22
2024-05-09T17:50:14.865Z,101135.34
2024-05-09T17:52:22.823Z,101139.94
2024-05-09T17:54:24.774Z,101131.44
2024-05-09T17:56:26.982Z,101137.63
2024-05-09T17:58:28.854Z,101144.72
2024-05-09T18:00:37.899Z,101137.03
2024-05-09T18:02:43.034Z,101132.69
2024-05-09T18:04:47.916Z,101136.09
2024-05-09T18:06:49.904Z,101133.34
2024-05-09T18:08:51.760Z,101133.81
2024-05-09T18:10:55.345Z,101140.09
2024-05-09T18:12:58.221Z,101137.72
2024-05-09T18:15:00.386Z,101140.22
2024-05-09T18:17:02.422Z,101140.88
2024-05-09T18:19:04.588Z,101136.84
2024-05-09T18:21:09.547Z,101138.03
2024-05-09T18:23:12.226Z,101137.22
2024-05-09T18:25:14.393Z,101138.69
2024-05-09T18:27:16.512Z,101137.28
2024-05-09T18:29:21.741Z,101129.41
2024-05-09T18:31:24.437Z,101139.13
2024-05-09T18:33:26.858Z,101143.66
2024-05-09T18:35:28.906Z,101137.41
2024-05-09T18:37:34.020Z,101143.56
2024-05-09T18:39:36.143Z,101143.44
2024-05-09T18:41:38.637Z,101144.88
2024-05-09T18:43:45.099Z,101147.03
2024-05-09T18:45:50.513Z,101149.56
2024-05-09T18:47:52.712Z,101159.06
2024-05-09T18:49:55.131Z,101155.72
2024-05-09T18:51:59.873Z,101164.59
2024-05-09T18:54:04.694Z,101160.13
2024-05-09T18:56:07.863Z,101160.47
2024-05-09T18:58:10.041Z,101164.47
2024-05-09T19:00:19.315Z,101165.94
2024-05-09T19:02:32.060Z,101171.13
2024-05-09T19:04:34.612Z,101170.34
2024-05-09T19:06:36.618Z,101176.59
2024-05-09T19:08:39.135Z,101177.06
2024-05-09T19:10:44.428Z,101175.84
2024-05-09T19:12:46.636Z,101175.75
2024-05-09T19:14:48.772Z,101182.56
2024-05-09T19:16:50.763Z,101182.72
2024-05-09T19:18:53.361Z,101183.88
2024-05-09T19:20:55.692Z,101194.03
2024-05-09T19:22:57.747Z,101192.91
2024-05-09T19:24:59.813Z,101191.78
2024-05-09T19:27:05.170Z,101188.88
2024-05-09T19:29:07.278Z,101194.50
2024-05-09T19:31:09.589Z,101192.09
2024-05-09T19:33:12.964Z,101194.38
2024-05-09T19:35:15.845Z,101195.50
2024-05-09T19:37:18.289Z,101189.91
2024-05-09T19:39:20.247Z,101194.59
2024-05-09T19:41:22.107Z,101201.22
2024-05-09T19:43:27.079Z,101197.06
2024-05-09T19:45:29.252Z,101198.34
2024-05-09T19:47:31.478Z,101199.31
2024-05-09T19:49:33.583Z,101193.22
2024-05-09T19:51:35.774Z,101185.00
2024-05-09T19:53:38.021Z,101190.16
2024-05-09T19:55:40.421Z,101196.13
2024-05-09T19:57:42.478Z,101191.47
2024-05-09T19:59:47.348Z,101197.59
2024-05-09T20:01:50.170Z,101198.53
2024-05-09T20:03:52.770Z,101193.88
2024-05-09T20:05:55.107Z,101195.50
2024-05-09T20:07:57.064Z,101198.34
2024-05-09T20:09:59.444Z,101202.38
2024-05-09T20:12:01.774Z,101206.56
2024-05-09T20:14:05.484Z,101202.69
2024-05-09T20:16:10.732Z,101207.81
2024-05-09T20:18:12.993Z,101204.91
2024-05-09T20:20:24.572Z,101205.22
2024-05-09T20:22:35.249Z,101205.50
2024-05-09T20:24:37.559Z,101200.84
2024-05-09T20:26:39.750Z,101205.72
2024-05-09T20:28:41.602Z,101208.88
2024-05-09T20:30:43.418Z,101209.47
2024-05-09T20:32:48.144Z,101207.84
2024-05-09T20:34:50.141Z,101207.66
2024-05-09T20:36:52.358Z,101207.81
2024-05-09T20:38:54.245Z,101206.84
2024-05-09T20:40:56.684Z,101208.03
2024-05-09T20:42:58.646Z,101205.34
2024-05-09T20:45:00.892Z,101207.22
2024-05-09T20:47:02.719Z,101210.22
2024-05-09T20:49:07.867Z,101213.59
2024-05-09T20:51:10.216Z,101215.38
2024-05-09T20:53:14.126Z,101217.28
2024-05-09T20:55:17.116Z,101206.19
2024-05-09T20:57:19.164Z,101217.88
2024-05-09T20:59:21.213Z,101215.94
2024-05-09T21:01:23.532Z,101219.06
2024-05-09T21:03:25.913Z,101212.44
2024-05-09T21:05:30.820Z,101213.81
2024-05-09T21:07:33.032Z,101217.63
2024-05-09T21:09:35.162Z,101213.94
2024-05-09T21:11:37.154Z,101217.66
2024-05-09T21:13:39.364Z,101210.88
2024-05-09T21:15:41.837Z,101215.47
2024-05-09T21:17:44.007Z,101212.69
2024-05-09T21:19:46.100Z,101212.97
2024-05-09T21:21:52.452Z,101215.34
2024-05-09T21:23:55.439Z,101212.78
2024-05-09T21:25:57.387Z,101213.25
2024-05-09T21:27:59.484Z,101210.75
2024-05-09T21:30:01.463Z,101210.13
2024-05-09T21:32:03.439Z,101210.50
2024-05-09T21:34:05.608Z,101208.59
2024-05-09T21:36:09.249Z,101211.25
2024-05-09T21:38:14.203Z,101207.09
2024-05-09T21:40:26.659Z,101208.34
2024-05-09T21:42:35.123Z,101203.22
2024-05-09T21:44:37.390Z,101202.84
2024-05-09T21:46:39.436Z,101205.13
2024-05-09T21:48:41.559Z,101206.22
2024-05-09T21:50:43.454Z,101201.22
2024-05-09T21:52:45.237Z,101197.81
2024-05-09T21:54:49.945Z,101199.13
2024-05-09T21:56:51.789Z,101197.38
2024-05-09T21:58:54.204Z,101196.44
2024-05-09T22:00:56.178Z,101191.25
2024-05-09T22:02:58.115Z,101194.22
2024-05-09T22:05:00.094Z,101195.91
2024-05-09T22:07:02.210Z,101187.47
2024-05-09T22:09:04.409Z,101193.84
2024-05-09T22:11:09.317Z,101193.75
2024-05-09T22:13:11.488Z,101195.84
2024-05-09T22:15:13.521Z,101199.28
2024-05-09T22:17:15.469Z,101197.22
2024-05-09T22:19:17.373Z,101194.50
2024-05-09T22:21:22.523Z,101193.09
2024-05-09T22:23:24.599Z,101194.91
2024-05-09T22:25:29.575Z,101199.97
2024-05-09T22:27:34.667Z,101193.50
2024-05-09T22:29:36.651Z,101198.78
2024-05-09T22:31:38.399Z,101194.84
2024-05-09T22:33:41.985Z,101205.53
2024-05-09T22:35:45.192Z,101204.16
2024-05-09T22:37:48.575Z,101203.72
2024-05-09T22:39:51.843Z,101203.31
2024-05-09T22:41:53.738Z,101198.97
2024-05-09T22:43:58.247Z,101201.78
2024-05-09T22:46:00.223Z,101200.09
2024-05-09T22:48:02.322Z,101190.59
2024-05-09T22:50:10.790Z,101199.38
2024-05-09T22:52:18.074Z,101192.91
2024-05-09T22:54:19.897Z,101193.41
2024-05-09T22:56:27.370Z,101186.44
2024-05-09T22:58:29.424Z,101190.78
2024-05-09T23:00:34.224Z,101190.19
2024-05-09T23:02:36.808Z,101189.88
2024-05-09T23:04:38.759Z,101189.69
2024-05-09T23:06:40.825Z,101192.31
2024-05-09T23:08:42.691Z,101194.13
2024-05-09T23:10:44.699Z,101185.13
2024-05-09T23:12:46.578Z,101191.50
2024-05-09T23:14:48.357Z,101183.31
2024-05-09T23:16:52.871Z,101185.47
2024-05-09T23:18:54.784Z,101190.91
2024-05-09T23:20:56.672Z,101182.63
2024-05-09T23:22:58.837Z,101182.31
2024-05-09T23:25:00.869Z,101180.28
2024-05-09T23:27:02.871Z,101180.88
2024-05-09T23:29:04.610Z,101186.69
2024-05-09T23:31:06.506Z,101192.84